Newark Liberty International Airport
KEWR : now visible

Aeroporto :











RITROVATECI SU...

 
LOGIN :

Iscrizione | Disclaimer

   EN    FR    IT 

 









Sommario :    VFR   VFR Marginale   IFR   IFR Intensivo   IFR Molto Intensivo
Visibilità : 
Base nubi : 
>= 8 km
>= 3000ft
5 / 8 km
1000 / 3000 ft
1500m / 5 km
500 / 1000 ft
800 / 1500m
200 / 500 ft
< 800m
< 200 ft
Simboli :   Temporali  Nebbia  Neve Forte  Precipitazioni Forti  Vento > 20 kt






- Altitudine del aeroporto : 18 ft
- Codice IATA : EWR


KEWR - Newark Liberty International

ULTIMO METAR :
  • 072151Z 32010G19KT 10SM FEW160 03/M10 A3041 RMK AO2 SLP298 T00281100

METARs OBSOLETI :
  • 072051Z 32010G17KT 10SM FEW055 FEW160 FEW250 03/M10 A3038 RMK AO2 SLP288 T00331100 53007
  • 071951Z 30011G16KT 10SM FEW055 FEW160 SCT250 04/M11 A3037 RMK AO2 SLP284 T00391106

TAF KEWR
Valido dal 07 a 21 ore il 09 a 00 ore UTC


072030Z 0721/0824 31011G17KT P6SM FEW050 SCT250
FM072200 32009KT P6SM FEW050 FEW250
FM080200 33005KT P6SM FEW050
FM080600 VRB03KT P6SM FEW250
FM081500 16005KT P6SM SCT250
FM081800 19008KT P6SM FEW040 BKN250



MetMap, La meteo Aeronautica in un colpo d'occhio ! - Copyright ORBIFLY Dicembre 2007 - Disclaimer

ORBIFLY MET'MAP TEAM :

Programmazione e sviluppo : Alexandra Zaïnal
Concezione : Baudouin d'Aumeries
Aiuto per la programmazione : Marc-Olivier Méhu
Supporto tecnico e logistico : Manuel Goepfert
Aiuto per la traduzione : Arnaldo La Scala

Contatto : metmap@orbifly.com




FONTI E CREDITI :

   NOAA       Earth
Advisory